sensor_id;sensor_type;location;lat;lon;timestamp;pressure;altitude;pressure_sealevel;temperature;humidity
4273;BME280;63887;53.656;9.810;2023-04-08T00:01:39;102367.41;;;6.18;88.29
4273;BME280;63887;53.656;9.810;2023-04-08T00:04:05;102375.16;;;6.27;88.47
4273;BME280;63887;53.656;9.810;2023-04-08T00:06:33;102375.94;;;6.34;87.49
4273;BME280;63887;53.656;9.810;2023-04-08T00:09:01;102378.13;;;6.67;85.60
4273;BME280;63887;53.656;9.810;2023-04-08T00:11:29;102376.41;;;6.66;85.63
4273;BME280;63887;53.656;9.810;2023-04-08T00:13:55;102380.00;;;6.54;86.01
4273;BME280;63887;53.656;9.810;2023-04-08T00:16:22;102379.31;;;6.43;86.96
4273;BME280;63887;53.656;9.810;2023-04-08T00:18:48;102376.66;;;6.46;86.98
4273;BME280;63887;53.656;9.810;2023-04-08T00:21:15;102375.31;;;6.12;88.50
4273;BME280;63887;53.656;9.810;2023-04-08T00:23:42;102377.72;;;6.30;87.73
4273;BME280;63887;53.656;9.810;2023-04-08T00:26:08;102366.97;;;6.54;84.96
4273;BME280;63887;53.656;9.810;2023-04-08T00:28:36;102372.97;;;6.64;85.03
4273;BME280;63887;53.656;9.810;2023-04-08T00:31:02;102372.22;;;6.53;85.97
4273;BME280;63887;53.656;9.810;2023-04-08T00:33:30;102381.41;;;6.81;84.92
4273;BME280;63887;53.656;9.810;2023-04-08T00:35:56;102382.53;;;6.64;85.92
4273;BME280;63887;53.656;9.810;2023-04-08T00:38:23;102384.34;;;6.57;84.80
4273;BME280;63887;53.656;9.810;2023-04-08T00:40:49;102389.66;;;6.48;86.79
4273;BME280;63887;53.656;9.810;2023-04-08T00:43:16;102389.81;;;6.36;86.56
4273;BME280;63887;53.656;9.810;2023-04-08T00:45:46;102387.09;;;6.45;87.46
4273;BME280;63887;53.656;9.810;2023-04-08T00:48:13;102391.66;;;6.26;87.14
4273;BME280;63887;53.656;9.810;2023-04-08T00:50:39;102395.91;;;6.35;87.60
4273;BME280;63887;53.656;9.810;2023-04-08T00:53:08;102385.41;;;6.42;86.87
4273;BME280;63887;53.656;9.810;2023-04-08T00:55:34;102381.06;;;6.41;86.92
4273;BME280;63887;53.656;9.810;2023-04-08T00:58:01;102386.84;;;6.65;84.77
4273;BME280;63887;53.656;9.810;2023-04-08T01:00:29;102380.97;;;6.49;86.25
4273;BME280;63887;53.656;9.810;2023-04-08T01:03:03;102387.91;;;6.48;85.99
4273;BME280;63887;53.656;9.810;2023-04-08T01:05:35;102382.91;;;6.32;86.02
4273;BME280;63887;53.656;9.810;2023-04-08T01:08:06;102388.97;;;6.34;87.09
4273;BME280;63887;53.656;9.810;2023-04-08T01:10:34;102387.44;;;6.14;88.22
4273;BME280;63887;53.656;9.810;2023-04-08T01:13:03;102385.72;;;6.84;84.89
4273;BME280;63887;53.656;9.810;2023-04-08T01:15:35;102386.03;;;6.61;85.58
4273;BME280;63887;53.656;9.810;2023-04-08T01:18:07;102393.19;;;6.44;86.77
4273;BME280;63887;53.656;9.810;2023-04-08T01:20:35;102393.13;;;6.50;85.90
4273;BME280;63887;53.656;9.810;2023-04-08T01:23:09;102390.31;;;6.65;85.57
4273;BME280;63887;53.656;9.810;2023-04-08T01:25:38;102391.03;;;6.78;85.27
4273;BME280;63887;53.656;9.810;2023-04-08T01:28:09;102383.63;;;6.44;87.02
4273;BME280;63887;53.656;9.810;2023-04-08T01:30:37;102386.81;;;6.68;85.26
4273;BME280;63887;53.656;9.810;2023-04-08T01:33:04;102384.22;;;6.66;85.42
4273;BME280;63887;53.656;9.810;2023-04-08T01:35:31;102383.47;;;6.58;85.52
4273;BME280;63887;53.656;9.810;2023-04-08T01:37:59;102384.34;;;6.58;85.43
4273;BME280;63887;53.656;9.810;2023-04-08T01:40:26;102385.38;;;6.44;87.22
4273;BME280;63887;53.656;9.810;2023-04-08T01:42:55;102382.00;;;6.34;87.05
4273;BME280;63887;53.656;9.810;2023-04-08T01:45:24;102379.88;;;6.67;85.19
4273;BME280;63887;53.656;9.810;2023-04-08T01:47:51;102380.13;;;6.47;86.21
4273;BME280;63887;53.656;9.810;2023-04-08T01:50:18;102382.06;;;6.30;87.14
4273;BME280;63887;53.656;9.810;2023-04-08T01:52:47;102384.72;;;6.26;88.34
4273;BME280;63887;53.656;9.810;2023-04-08T01:55:15;102380.00;;;6.57;86.70
4273;BME280;63887;53.656;9.810;2023-04-08T01:57:43;102382.22;;;6.14;88.45
4273;BME280;63887;53.656;9.810;2023-04-08T02:00:15;102380.38;;;6.24;87.77
4273;BME280;63887;53.656;9.810;2023-04-08T02:02:45;102387.06;;;6.48;86.93
4273;BME280;63887;53.656;9.810;2023-04-08T02:05:12;102385.19;;;6.61;85.86
4273;BME280;63887;53.656;9.810;2023-04-08T02:07:38;102382.44;;;6.71;85.15
4273;BME280;63887;53.656;9.810;2023-04-08T02:10:06;102381.66;;;6.63;85.45
4273;BME280;63887;53.656;9.810;2023-04-08T02:12:33;102383.47;;;6.58;85.48
4273;BME280;63887;53.656;9.810;2023-04-08T02:15:00;102377.50;;;6.47;85.35
4273;BME280;63887;53.656;9.810;2023-04-08T02:17:32;102372.38;;;6.39;86.69
4273;BME280;63887;53.656;9.810;2023-04-08T02:20:05;102377.19;;;5.99;88.71
4273;BME280;63887;53.656;9.810;2023-04-08T02:22:37;102373.19;;;6.46;86.92
4273;BME280;63887;53.656;9.810;2023-04-08T02:25:08;102361.72;;;6.59;86.05
4273;BME280;63887;53.656;9.810;2023-04-08T02:27:38;102370.34;;;6.64;85.94
4273;BME280;63887;53.656;9.810;2023-04-08T02:30:06;102373.06;;;6.56;85.95
4273;BME280;63887;53.656;9.810;2023-04-08T02:32:34;102364.38;;;6.54;86.25
4273;BME280;63887;53.656;9.810;2023-04-08T02:35:03;102375.63;;;6.60;85.15
4273;BME280;63887;53.656;9.810;2023-04-08T02:37:31;102378.31;;;6.55;85.43
4273;BME280;63887;53.656;9.810;2023-04-08T02:39:58;102374.13;;;6.40;86.07
4273;BME280;63887;53.656;9.810;2023-04-08T02:42:24;102368.13;;;6.34;86.23
4273;BME280;63887;53.656;9.810;2023-04-08T02:44:51;102375.84;;;6.40;85.87
4273;BME280;63887;53.656;9.810;2023-04-08T02:47:17;102367.94;;;6.49;86.11
4273;BME280;63887;53.656;9.810;2023-04-08T02:49:43;102370.38;;;6.63;84.58
4273;BME280;63887;53.656;9.810;2023-04-08T02:52:11;102376.44;;;6.63;85.06
4273;BME280;63887;53.656;9.810;2023-04-08T02:54:38;102373.78;;;6.68;84.76
4273;BME280;63887;53.656;9.810;2023-04-08T02:57:04;102366.22;;;6.46;85.98
4273;BME280;63887;53.656;9.810;2023-04-08T02:59:31;102371.38;;;6.51;86.10
4273;BME280;63887;53.656;9.810;2023-04-08T03:01:57;102367.88;;;6.52;85.34
4273;BME280;63887;53.656;9.810;2023-04-08T03:04:24;102365.16;;;6.63;84.56
4273;BME280;63887;53.656;9.810;2023-04-08T03:06:50;102372.22;;;6.53;85.88
4273;BME280;63887;53.656;9.810;2023-04-08T03:09:18;102370.31;;;6.66;83.92
4273;BME280;63887;53.656;9.810;2023-04-08T03:11:44;102380.00;;;6.54;85.24
4273;BME280;63887;53.656;9.810;2023-04-08T03:14:16;102384.63;;;6.33;85.69
4273;BME280;63887;53.656;9.810;2023-04-08T03:16:43;102389.88;;;6.31;86.04
4273;BME280;63887;53.656;9.810;2023-04-08T03:19:09;102381.88;;;6.46;85.34
4273;BME280;63887;53.656;9.810;2023-04-08T03:21:35;102374.78;;;6.57;84.85
4273;BME280;63887;53.656;9.810;2023-04-08T03:24:02;102380.94;;;6.50;85.51
4273;BME280;63887;53.656;9.810;2023-04-08T03:26:30;102385.22;;;6.57;85.35
4273;BME280;63887;53.656;9.810;2023-04-08T03:28:57;102391.28;;;6.58;84.63
4273;BME280;63887;53.656;9.810;2023-04-08T03:31:23;102384.34;;;6.57;85.12
4273;BME280;63887;53.656;9.810;2023-04-08T03:33:49;102386.44;;;6.27;85.63
4273;BME280;63887;53.656;9.810;2023-04-08T03:36:16;102391.56;;;6.34;86.41
4273;BME280;63887;53.656;9.810;2023-04-08T03:38:43;102399.31;;;6.38;85.54
4273;BME280;63887;53.656;9.810;2023-04-08T03:41:10;102393.41;;;6.22;86.26
4273;BME280;63887;53.656;9.810;2023-04-08T03:43:37;102396.88;;;6.24;86.11
4273;BME280;63887;53.656;9.810;2023-04-08T03:46:04;102402.06;;;6.24;86.92
4273;BME280;63887;53.656;9.810;2023-04-08T03:48:30;102398.47;;;6.38;85.87
4273;BME280;63887;53.656;9.810;2023-04-08T03:50:57;102397.56;;;6.42;85.54
4273;BME280;63887;53.656;9.810;2023-04-08T03:53:23;102404.50;;;6.40;85.46
4273;BME280;63887;53.656;9.810;2023-04-08T03:55:52;102414.00;;;6.47;85.97
4273;BME280;63887;53.656;9.810;2023-04-08T03:58:18;102406.31;;;6.36;86.03
4273;BME280;63887;53.656;9.810;2023-04-08T04:00:46;102405.47;;;6.34;86.29
4273;BME280;63887;53.656;9.810;2023-04-08T04:03:13;102406.41;;;6.28;86.33
4273;BME280;63887;53.656;9.810;2023-04-08T04:05:39;102407.38;;;6.18;86.81
4273;BME280;63887;53.656;9.810;2023-04-08T04:08:06;102413.53;;;6.08;87.67
4273;BME280;63887;53.656;9.810;2023-04-08T04:10:33;102418.53;;;6.30;87.83
4273;BME280;63887;53.656;9.810;2023-04-08T04:13:00;102424.75;;;6.18;87.31
4273;BME280;63887;53.656;9.810;2023-04-08T04:15:26;102422.94;;;6.26;86.90
4273;BME280;63887;53.656;9.810;2023-04-08T04:17:54;102425.78;;;6.00;87.57
4273;BME280;63887;53.656;9.810;2023-04-08T04:20:20;102425.78;;;6.00;88.34
4273;BME280;63887;53.656;9.810;2023-04-08T04:22:47;102437.69;;;6.27;87.12
4273;BME280;63887;53.656;9.810;2023-04-08T04:25:13;102430.91;;;6.06;87.67
4273;BME280;63887;53.656;9.810;2023-04-08T04:27:40;102453.63;;;5.89;88.26
4273;BME280;63887;53.656;9.810;2023-04-08T04:30:07;102449.41;;;5.73;89.05
4273;BME280;63887;53.656;9.810;2023-04-08T04:32:34;102443.19;;;5.89;88.56
4273;BME280;63887;53.656;9.810;2023-04-08T04:35:02;102446.66;;;5.94;88.06
4273;BME280;63887;53.656;9.810;2023-04-08T04:37:29;102444.03;;;5.97;87.68
4273;BME280;63887;53.656;9.810;2023-04-08T04:39:55;102445.91;;;5.75;89.55
4273;BME280;63887;53.656;9.810;2023-04-08T04:42:22;102443.31;;;5.75;89.23
4273;BME280;63887;53.656;9.810;2023-04-08T04:44:48;102447.53;;;5.93;88.49
4273;BME280;63887;53.656;9.810;2023-04-08T04:47:14;102442.47;;;5.73;89.46
4273;BME280;63887;53.656;9.810;2023-04-08T04:49:41;102446.66;;;5.97;89.11
4273;BME280;63887;53.656;9.810;2023-04-08T04:52:09;102449.97;;;6.10;88.12
4273;BME280;63887;53.656;9.810;2023-04-08T04:54:35;102454.47;;;5.97;88.01
4273;BME280;63887;53.656;9.810;2023-04-08T04:57:02;102457.84;;;6.05;87.97
4273;BME280;63887;53.656;9.810;2023-04-08T04:59:28;102462.16;;;6.11;88.60
4273;BME280;63887;53.656;9.810;2023-04-08T05:01:55;102464.75;;;6.09;88.54
4273;BME280;63887;53.656;9.810;2023-04-08T05:04:22;102464.66;;;6.21;88.55
4273;BME280;63887;53.656;9.810;2023-04-08T05:06:48;102466.38;;;6.21;88.25
4273;BME280;63887;53.656;9.810;2023-04-08T05:09:16;102469.09;;;6.12;88.75
4273;BME280;63887;53.656;9.810;2023-04-08T05:11:43;102463.91;;;6.07;89.49
4273;BME280;63887;53.656;9.810;2023-04-08T05:14:09;102472.66;;;6.02;89.45
4273;BME280;63887;53.656;9.810;2023-04-08T05:16:36;102472.72;;;5.95;89.74
4273;BME280;63887;53.656;9.810;2023-04-08T05:19:03;102475.34;;;5.91;90.07
4273;BME280;63887;53.656;9.810;2023-04-08T05:21:29;102485.81;;;5.82;90.63
4273;BME280;63887;53.656;9.810;2023-04-08T05:23:56;102483.19;;;5.83;90.66
4273;BME280;63887;53.656;9.810;2023-04-08T05:26:24;102482.25;;;5.93;90.81
4273;BME280;63887;53.656;9.810;2023-04-08T05:28:51;102484.03;;;5.84;90.64
4273;BME280;63887;53.656;9.810;2023-04-08T05:31:18;102485.78;;;5.85;91.49
4273;BME280;63887;53.656;9.810;2023-04-08T05:33:45;102485.72;;;5.94;91.13
4273;BME280;63887;53.656;9.810;2023-04-08T05:36:12;102483.84;;;6.14;89.27
4273;BME280;63887;53.656;9.810;2023-04-08T05:38:39;102482.22;;;5.98;89.75
4273;BME280;63887;53.656;9.810;2023-04-08T05:41:07;102490.91;;;6.00;90.92
4273;BME280;63887;53.656;9.810;2023-04-08T05:43:35;102488.34;;;5.91;91.48
4273;BME280;63887;53.656;9.810;2023-04-08T05:46:05;102491.75;;;6.02;90.04
4273;BME280;63887;53.656;9.810;2023-04-08T05:48:31;102480.56;;;5.86;91.25
4273;BME280;63887;53.656;9.810;2023-04-08T05:50:58;102490.94;;;5.97;90.30
4273;BME280;63887;53.656;9.810;2023-04-08T05:53:24;102489.25;;;5.85;90.82
4273;BME280;63887;53.656;9.810;2023-04-08T05:55:50;102488.25;;;6.05;90.53
4273;BME280;63887;53.656;9.810;2023-04-08T05:58:17;102495.16;;;6.10;89.63
4273;BME280;63887;53.656;9.810;2023-04-08T06:00:45;102490.81;;;6.11;88.87
4273;BME280;63887;53.656;9.810;2023-04-08T06:03:11;102493.38;;;6.15;89.52
4273;BME280;63887;53.656;9.810;2023-04-08T06:05:37;102496.88;;;6.08;89.42
4273;BME280;63887;53.656;9.810;2023-04-08T06:08:04;102503.06;;;5.95;90.81
4273;BME280;63887;53.656;9.810;2023-04-08T06:10:31;102507.38;;;6.01;90.29
4273;BME280;63887;53.656;9.810;2023-04-08T06:12:57;102517.00;;;5.91;90.47
4273;BME280;63887;53.656;9.810;2023-04-08T06:15:24;102516.09;;;6.00;90.06
4273;BME280;63887;53.656;9.810;2023-04-08T06:17:53;102516.91;;;6.05;89.22
4273;BME280;63887;53.656;9.810;2023-04-08T06:20:19;102522.19;;;5.88;89.42
4273;BME280;63887;53.656;9.810;2023-04-08T06:22:46;102524.81;;;5.92;89.58
4273;BME280;63887;53.656;9.810;2023-04-08T06:25:13;102526.44;;;6.06;88.79
4273;BME280;63887;53.656;9.810;2023-04-08T06:27:39;102531.53;;;6.21;88.56
4273;BME280;63887;53.656;9.810;2023-04-08T06:30:07;102536.00;;;6.05;89.53
4273;BME280;63887;53.656;9.810;2023-04-08T06:32:34;102537.59;;;6.21;88.26
4273;BME280;63887;53.656;9.810;2023-04-08T06:35:01;102534.84;;;6.38;87.79
4273;BME280;63887;53.656;9.810;2023-04-08T06:37:28;102538.53;;;6.16;88.53
4273;BME280;63887;53.656;9.810;2023-04-08T06:39:54;102542.19;;;5.90;90.11
4273;BME280;63887;53.656;9.810;2023-04-08T06:42:21;102550.78;;;6.02;90.32
4273;BME280;63887;53.656;9.810;2023-04-08T06:44:47;102551.56;;;6.14;88.41
4273;BME280;63887;53.656;9.810;2023-04-08T06:47:13;102552.56;;;5.95;88.99
4273;BME280;63887;53.656;9.810;2023-04-08T06:49:41;102557.69;;;6.12;89.76
4273;BME280;63887;53.656;9.810;2023-04-08T06:52:08;102554.16;;;6.16;89.24
4273;BME280;63887;53.656;9.810;2023-04-08T06:54:35;102558.47;;;6.18;89.30
4273;BME280;63887;53.656;9.810;2023-04-08T06:57:01;102553.44;;;5.88;89.96
4273;BME280;63887;53.656;9.810;2023-04-08T06:59:28;102564.00;;;5.63;90.87
4273;BME280;63887;53.656;9.810;2023-04-08T07:01:55;102563.88;;;5.92;91.22
4273;BME280;63887;53.656;9.810;2023-04-08T07:04:21;102560.31;;;6.06;90.41
4273;BME280;63887;53.656;9.810;2023-04-08T07:06:47;102568.88;;;6.21;90.79
4273;BME280;63887;53.656;9.810;2023-04-08T07:09:15;102565.31;;;6.32;89.38
4273;BME280;63887;53.656;9.810;2023-04-08T07:11:42;102568.81;;;6.29;90.52
4273;BME280;63887;53.656;9.810;2023-04-08T07:14:08;102571.28;;;6.46;88.66
4273;BME280;63887;53.656;9.810;2023-04-08T07:16:35;102569.59;;;6.42;89.00
4273;BME280;63887;53.656;9.810;2023-04-08T07:19:01;102576.66;;;6.29;88.81
4273;BME280;63887;53.656;9.810;2023-04-08T07:21:28;102583.38;;;6.51;88.60
4273;BME280;63887;53.656;9.810;2023-04-08T07:23:55;102577.53;;;6.28;88.84
4273;BME280;63887;53.656;9.810;2023-04-08T07:26:23;102583.84;;;5.90;89.09
4273;BME280;63887;53.656;9.810;2023-04-08T07:28:49;102578.38;;;6.28;89.40
4273;BME280;63887;53.656;9.810;2023-04-08T07:31:16;102579.94;;;6.48;87.84
4273;BME280;63887;53.656;9.810;2023-04-08T07:33:44;102581.69;;;6.49;88.16
4273;BME280;63887;53.656;9.810;2023-04-08T07:36:12;102578.25;;;6.45;87.98
4273;BME280;63887;53.656;9.810;2023-04-08T07:38:39;102583.38;;;6.51;87.50
4273;BME280;63887;53.656;9.810;2023-04-08T07:41:06;102589.53;;;6.47;87.85
4273;BME280;63887;53.656;9.810;2023-04-08T07:43:33;102581.66;;;6.50;88.39
4273;BME280;63887;53.656;9.810;2023-04-08T07:46:01;102584.19;;;6.61;87.42
4273;BME280;63887;53.656;9.810;2023-04-08T07:48:27;102586.81;;;6.60;87.25
4273;BME280;63887;53.656;9.810;2023-04-08T07:50:54;102590.34;;;6.55;86.85
4273;BME280;63887;53.656;9.810;2023-04-08T07:53:21;102597.41;;;6.37;87.67
4273;BME280;63887;53.656;9.810;2023-04-08T07:55:47;102595.81;;;6.19;88.76
4273;BME280;63887;53.656;9.810;2023-04-08T07:58:14;102600.78;;;6.49;88.50
4273;BME280;63887;53.656;9.810;2023-04-08T08:00:42;102597.25;;;6.60;87.71
4273;BME280;63887;53.656;9.810;2023-04-08T08:03:08;102599.91;;;6.52;87.18
4273;BME280;63887;53.656;9.810;2023-04-08T08:05:35;102597.34;;;6.46;87.90
4273;BME280;63887;53.656;9.810;2023-04-08T08:08:01;102601.50;;;6.70;87.14
4273;BME280;63887;53.656;9.810;2023-04-08T08:10:28;102605.88;;;6.63;87.30
4273;BME280;63887;53.656;9.810;2023-04-08T08:12:54;102608.47;;;6.66;87.48
4273;BME280;63887;53.656;9.810;2023-04-08T08:15:20;102606.88;;;6.50;87.07
4273;BME280;63887;53.656;9.810;2023-04-08T08:17:48;102616.50;;;6.43;87.21
4273;BME280;63887;53.656;9.810;2023-04-08T08:20:15;102625.31;;;6.27;88.64
4273;BME280;63887;53.656;9.810;2023-04-08T08:22:41;102620.03;;;6.35;88.30
4273;BME280;63887;53.656;9.810;2023-04-08T08:25:09;102624.44;;;6.23;88.78
4273;BME280;63887;53.656;9.810;2023-04-08T08:27:36;102621.69;;;6.45;88.55
4273;BME280;63887;53.656;9.810;2023-04-08T08:30:05;102619.00;;;6.57;88.16
4273;BME280;63887;53.656;9.810;2023-04-08T08:32:32;102618.13;;;6.58;87.18
4273;BME280;63887;53.656;9.810;2023-04-08T08:34:59;102624.31;;;6.43;88.71
4273;BME280;63887;53.656;9.810;2023-04-08T08:37:26;102626.78;;;6.60;88.17
4273;BME280;63887;53.656;9.810;2023-04-08T08:39:53;102628.47;;;6.64;87.95
4273;BME280;63887;53.656;9.810;2023-04-08T08:42:19;102626.69;;;6.69;87.51
4273;BME280;63887;53.656;9.810;2023-04-08T08:44:47;102625.78;;;6.75;86.85
4273;BME280;63887;53.656;9.810;2023-04-08T08:47:13;102634.66;;;6.51;88.82
4273;BME280;63887;53.656;9.810;2023-04-08T08:49:40;102638.19;;;6.45;88.87
4273;BME280;63887;53.656;9.810;2023-04-08T08:52:08;102638.00;;;6.68;87.72
4273;BME280;63887;53.656;9.810;2023-04-08T08:54:35;102641.69;;;6.43;88.31
4273;BME280;63887;53.656;9.810;2023-04-08T08:57:02;102633.84;;;6.47;88.16
4273;BME280;63887;53.656;9.810;2023-04-08T08:59:28;102640.75;;;6.50;87.92
4273;BME280;63887;53.656;9.810;2023-04-08T09:01:55;102639.81;;;6.62;88.03
4273;BME280;63887;53.656;9.810;2023-04-08T09:04:21;102641.53;;;6.61;88.12
4273;BME280;63887;53.656;9.810;2023-04-08T09:06:48;102644.88;;;6.78;86.54
4273;BME280;63887;53.656;9.810;2023-04-08T09:09:18;102648.31;;;6.80;86.74
4273;BME280;63887;53.656;9.810;2023-04-08T09:11:45;102644.97;;;6.71;86.83
4273;BME280;63887;53.656;9.810;2023-04-08T09:14:19;102645.56;;;6.96;86.35
4273;BME280;63887;53.656;9.810;2023-04-08T09:16:46;102656.00;;;6.97;86.62
4273;BME280;63887;53.656;9.810;2023-04-08T09:19:12;102643.56;;;7.24;85.58
4273;BME280;63887;53.656;9.810;2023-04-08T09:21:39;102649.47;;;7.39;83.62
4273;BME280;63887;53.656;9.810;2023-04-08T09:24:06;102649.50;;;7.38;84.03
4273;BME280;63887;53.656;9.810;2023-04-08T09:26:35;102655.44;;;7.51;83.76
4273;BME280;63887;53.656;9.810;2023-04-08T09:29:04;102658.34;;;7.25;83.96
4273;BME280;63887;53.656;9.810;2023-04-08T09:31:32;102644.13;;;7.52;83.48
4273;BME280;63887;53.656;9.810;2023-04-08T09:34:08;102650.00;;;7.69;82.80
4273;BME280;63887;53.656;9.810;2023-04-08T09:36:35;102655.41;;;7.54;83.46
4273;BME280;63887;53.656;9.810;2023-04-08T09:39:01;102656.25;;;7.56;83.06
4273;BME280;63887;53.656;9.810;2023-04-08T09:41:32;102664.22;;;7.46;82.96
4273;BME280;63887;53.656;9.810;2023-04-08T09:44:04;102659.84;;;7.47;83.60
4273;BME280;63887;53.656;9.810;2023-04-08T09:46:32;102657.09;;;7.59;83.43
4273;BME280;63887;53.656;9.810;2023-04-08T09:49:04;102653.66;;;7.54;83.21
4273;BME280;63887;53.656;9.810;2023-04-08T09:51:35;102650.03;;;7.66;82.50
4273;BME280;63887;53.656;9.810;2023-04-08T09:54:05;102660.47;;;7.67;82.38
4273;BME280;63887;53.656;9.810;2023-04-08T09:56:41;102657.75;;;7.73;82.65
4273;BME280;63887;53.656;9.810;2023-04-08T09:59:12;102649.97;;;7.70;83.37
4273;BME280;63887;53.656;9.810;2023-04-08T10:01:44;102653.31;;;7.82;82.17
4273;BME280;63887;53.656;9.810;2023-04-08T10:04:14;102654.06;;;7.91;81.66
4273;BME280;63887;53.656;9.810;2023-04-08T10:06:41;102662.91;;;7.81;81.64
4273;BME280;63887;53.656;9.810;2023-04-08T10:09:08;102666.31;;;7.86;82.32
4273;BME280;63887;53.656;9.810;2023-04-08T10:11:35;102661.06;;;7.91;81.93
4273;BME280;63887;53.656;9.810;2023-04-08T10:14:02;102660.19;;;7.87;82.18
4273;BME280;63887;53.656;9.810;2023-04-08T10:16:30;102662.06;;;7.79;82.95
4273;BME280;63887;53.656;9.810;2023-04-08T10:18:56;102661.03;;;7.92;81.86
4273;BME280;63887;53.656;9.810;2023-04-08T10:21:40;102653.38;;;7.77;82.85
4273;BME280;63887;53.656;9.810;2023-04-08T10:24:12;102661.78;;;7.99;82.65
4273;BME280;63887;53.656;9.810;2023-04-08T10:26:40;102656.28;;;8.20;80.74
4273;BME280;63887;53.656;9.810;2023-04-08T10:29:40;102661.31;;;8.35;79.94
4273;BME280;63887;53.656;9.810;2023-04-08T10:32:08;102659.84;;;8.13;81.11
4273;BME280;63887;53.656;9.810;2023-04-08T10:34:50;102653.69;;;8.19;81.09
4273;BME280;63887;53.656;9.810;2023-04-08T10:37:18;102658.03;;;8.20;81.02
4273;BME280;63887;53.656;9.810;2023-04-08T10:39:48;102665.06;;;8.15;81.38
4273;BME280;63887;53.656;9.810;2023-04-08T10:42:17;102670.28;;;8.15;81.19
4273;BME280;63887;53.656;9.810;2023-04-08T10:44:44;102670.25;;;8.19;80.91
4273;BME280;63887;53.656;9.810;2023-04-08T10:47:12;102667.06;;;7.96;81.57
4273;BME280;63887;53.656;9.810;2023-04-08T10:49:39;102674.03;;;7.97;81.94
4273;BME280;63887;53.656;9.810;2023-04-08T10:52:06;102665.94;;;8.14;81.23
4273;BME280;63887;53.656;9.810;2023-04-08T10:54:33;102670.34;;;8.12;81.56
4273;BME280;63887;53.656;9.810;2023-04-08T10:57:00;102670.03;;;8.31;80.80
4273;BME280;63887;53.656;9.810;2023-04-08T10:59:28;102665.91;;;8.17;80.57
4273;BME280;63887;53.656;9.810;2023-04-08T11:01:54;102675.63;;;8.08;80.51
4273;BME280;63887;53.656;9.810;2023-04-08T11:04:24;102672.28;;;7.97;81.37
4273;BME280;63887;53.656;9.810;2023-04-08T11:06:51;102673.94;;;8.04;81.50
4273;BME280;63887;53.656;9.810;2023-04-08T11:09:18;102670.38;;;8.08;81.44
4273;BME280;63887;53.656;9.810;2023-04-08T11:11:45;102680.03;;;8.03;81.33
4273;BME280;63887;53.656;9.810;2023-04-08T11:14:12;102680.91;;;8.02;81.69
4273;BME280;63887;53.656;9.810;2023-04-08T11:16:39;102680.41;;;7.73;83.08
4273;BME280;63887;53.656;9.810;2023-04-08T11:19:06;102673.44;;;7.73;82.15
4273;BME280;63887;53.656;9.810;2023-04-08T11:21:37;102676.50;;;8.07;81.19
4273;BME280;63887;53.656;9.810;2023-04-08T11:24:09;102683.09;;;7.68;82.42
4273;BME280;63887;53.656;9.810;2023-04-08T11:26:38;102686.59;;;7.67;83.31
4273;BME280;63887;53.656;9.810;2023-04-08T11:29:05;102686.31;;;7.87;82.29
4273;BME280;63887;53.656;9.810;2023-04-08T11:31:33;102684.53;;;7.92;81.76
4273;BME280;63887;53.656;9.810;2023-04-08T11:34:00;102689.34;;;7.54;82.31
4273;BME280;63887;53.656;9.810;2023-04-08T11:36:28;102683.25;;;7.55;82.86
4273;BME280;63887;53.656;9.810;2023-04-08T11:38:55;102681.19;;;7.81;82.20
4273;BME280;63887;53.656;9.810;2023-04-08T11:41:22;102685.66;;;7.71;82.95
4273;BME280;63887;53.656;9.810;2023-04-08T11:43:53;102680.25;;;7.87;81.90
4273;BME280;63887;53.656;9.810;2023-04-08T11:46:20;102678.47;;;7.90;82.22
4273;BME280;63887;53.656;9.810;2023-04-08T11:48:57;102676.81;;;7.83;81.88
4273;BME280;63887;53.656;9.810;2023-04-08T11:51:24;102675.69;;;8.01;81.38
4273;BME280;63887;53.656;9.810;2023-04-08T11:53:51;102679.59;;;7.69;82.73
4273;BME280;63887;53.656;9.810;2023-04-08T11:56:20;102678.53;;;7.84;82.69
4273;BME280;63887;53.656;9.810;2023-04-08T11:58:47;102680.78;;;8.12;81.22
4273;BME280;63887;53.656;9.810;2023-04-08T12:01:14;102674.84;;;7.99;81.50
4273;BME280;63887;53.656;9.810;2023-04-08T12:03:53;102682.50;;;8.14;81.26
4273;BME280;63887;53.656;9.810;2023-04-08T12:06:19;102680.88;;;8.05;81.77
4273;BME280;63887;53.656;9.810;2023-04-08T12:08:46;102677.47;;;7.99;81.79
4273;BME280;63887;53.656;9.810;2023-04-08T12:11:12;102680.09;;;7.97;81.77
4273;BME280;63887;53.656;9.810;2023-04-08T12:13:41;102689.53;;;8.11;82.04
4273;BME280;63887;53.656;9.810;2023-04-08T12:16:07;102674.97;;;7.91;82.49
4273;BME280;63887;53.656;9.810;2023-04-08T12:18:34;102685.75;;;8.30;80.67
4273;BME280;63887;53.656;9.810;2023-04-08T12:21:00;102690.41;;;8.10;81.36
4273;BME280;63887;53.656;9.810;2023-04-08T12:23:27;102688.47;;;8.24;80.82
4273;BME280;63887;53.656;9.810;2023-04-08T12:25:53;102685.44;;;7.88;82.45
4273;BME280;63887;53.656;9.810;2023-04-08T12:28:20;102695.88;;;7.91;82.05
4273;BME280;63887;53.656;9.810;2023-04-08T12:30:48;102684.56;;;7.91;82.28
4273;BME280;63887;53.656;9.810;2023-04-08T12:33:14;102690.59;;;7.94;82.33
4273;BME280;63887;53.656;9.810;2023-04-08T12:35:41;102694.78;;;8.09;81.92
4273;BME280;63887;53.656;9.810;2023-04-08T12:38:07;102685.38;;;7.94;82.41
4273;BME280;63887;53.656;9.810;2023-04-08T12:40:34;102688.75;;;8.02;81.61
4273;BME280;63887;53.656;9.810;2023-04-08T12:43:00;102692.63;;;7.74;82.95
4273;BME280;63887;53.656;9.810;2023-04-08T12:45:27;102690.66;;;7.88;82.80
4273;BME280;63887;53.656;9.810;2023-04-08T12:47:54;102691.16;;;8.16;81.57
4273;BME280;63887;53.656;9.810;2023-04-08T12:50:21;102692.44;;;7.89;82.27
4273;BME280;63887;53.656;9.810;2023-04-08T12:52:48;102703.13;;;7.66;83.48
4273;BME280;63887;53.656;9.810;2023-04-08T12:55:14;102693.16;;;7.99;81.71
4273;BME280;63887;53.656;9.810;2023-04-08T12:57:42;102695.75;;;8.00;81.34
4273;BME280;63887;53.656;9.810;2023-04-08T13:00:09;102700.81;;;8.13;81.03
4273;BME280;63887;53.656;9.810;2023-04-08T13:02:36;102703.97;;;7.70;82.23
4273;BME280;63887;53.656;9.810;2023-04-08T13:05:04;102699.66;;;7.66;83.25
4273;BME280;63887;53.656;9.810;2023-04-08T13:07:31;102709.84;;;7.90;82.43
4273;BME280;63887;53.656;9.810;2023-04-08T13:09:57;102710.50;;;8.03;81.68
4273;BME280;63887;53.656;9.810;2023-04-08T13:12:23;102705.28;;;8.03;81.70